^^
Station Historical Data
Daily Summary for January 7, 2018 Units:  Both    English   Metric
« Previous Day
Next Day »
Daily Weekly Monthly Yearly Custom
  High: Low: Average:
Temperature: TemperatureC °F /  -17.8 °C -4.4 °F /  -20.2 °C -2.3 °F /  -19.1 °C
Dew Point: DewpointC °F /  -17.8 °C -6.4 °F /  -21.3 °C -4.3 °F /  -20.2 °C
Humidity: Humidity% 76% 85%
Wind Speed: WindSpeedKMHmph /  0km/h - 2.5mph /  4km/h
Wind Gust: WindSpeedGustKMHmph /  0km/h - -
Wind- - WNW
Pressure: PressurehPa in /  0 hPa 1002.9 in /  33958.2 hPa -
Precipitation: 0.0 in /  0 mm    
Historical Graphs
 
 
Tabular Data for January 7, 2018
Time Temperature Dew Point Pressure Wind Wind Speed Wind Gust Humidity Rainfall Rate (Hourly) solar Conditions
TemperatureC °F /  -17.8 °C DewpointC °F /  -17.8 °C PressurehPain /  0hPa Calm     Humidity% HourlyPrecipMMin /  0mm SoftwareType W/m2 Conditions
00:00 -2.3 °F /  -19.1 °C -3.6 °F /  -19.8 °C 1002.9in /  33958.2hPa NW 2.6mph /  4.2km/h 5.6mph /  9km/h 91% 0.0in /  0mm WeatherDisplay:10.37 W/m2 RA
00:05 -2.3 °F /  -19.1 °C -3.6 °F /  -19.8 °C 1002.9in /  33958.2hPa Calm   5.6mph /  9km/h 91% 0.0in /  0mm WeatherDisplay:10.37 W/m2 RA
00:11 -2.3 °F /  -19.1 °C -3.7 °F /  -19.8 °C 1003.3in /  33971.7hPa NNW 4.7mph /  7.6km/h 13.0mph /  20.9km/h 90% 0.0in /  0mm WeatherDisplay:10.37 W/m2 FEW
00:17 -2.3 °F /  -19.1 °C -3.8 °F /  -19.9 °C 1003.3in /  33971.7hPa NNW 6.8mph /  10.9km/h 7.4mph /  11.9km/h 90% 0.0in /  0mm WeatherDisplay:10.37 W/m2 FEW
00:22 -2.3 °F /  -19.1 °C -3.7 °F /  -19.8 °C 1003.6in /  33981.9hPa NW 4.8mph /  7.7km/h 8.0mph /  12.9km/h 90% 0.0in /  0mm WeatherDisplay:10.37 W/m2 FEW
00:26 -2.3 °F /  -19.1 °C -3.7 °F /  -19.8 °C 1003.6in /  33981.9hPa NNW 5.5mph /  8.9km/h 16.7mph /  26.9km/h 90% 0.0in /  0mm WeatherDisplay:10.37 W/m2 FEW
00:31 -2.3 °F /  -19.1 °C -3.7 °F /  -19.8 °C 1003.6in /  33981.9hPa NNW 4.2mph /  6.8km/h 7.4mph /  11.9km/h 90% 0.0in /  0mm WeatherDisplay:10.37 W/m2 FEW
00:37 -2.3 °F /  -19.1 °C -3.7 °F /  -19.8 °C 1003.6in /  33981.9hPa NW 0.2mph /  0.3km/h 3.2mph /  5.1km/h 90% 0.0in /  0mm WeatherDisplay:10.37 W/m2 FEW
00:42 -2.3 °F /  -19.1 °C -3.9 °F /  -19.9 °C 1003.9in /  33992.1hPa WNW 3.4mph /  5.5km/h 5.6mph /  9km/h 89% 0.0in /  0mm WeatherDisplay:10.37 W/m2 FEW
00:47 -2.4 °F /  -19.1 °C -3.9 °F /  -19.9 °C 1003.9in /  33992.1hPa WNW 10.1mph /  16.3km/h 22.2mph /  35.7km/h 89% 0.0in /  0mm WeatherDisplay:10.37 W/m2 FEW
00:52 -2.4 °F /  -19.1 °C -4.0 °F /  -20 °C 1003.9in /  33992.1hPa WNW 7.7mph /  12.4km/h 16.7mph /  26.9km/h 89% 0.0in /  0mm WeatherDisplay:10.37 W/m2 FEW
00:57 -2.5 °F /  -19.2 °C -4.1 °F /  -20.1 °C 1003.9in /  33992.1hPa NW 4.2mph /  6.8km/h 8.0mph /  12.9km/h 89% 0.0in /  0mm WeatherDisplay:10.37 W/m2 FEW
01:01 -2.5 °F /  -19.2 °C -3.9 °F /  -19.9 °C 1003.9in /  33992.1hPa WNW 7.7mph /  12.4km/h 14.8mph /  23.8km/h 90% 0.0in /  0mm WeatherDisplay:10.37 W/m2 FEW
01:06 -2.6 °F /  -19.2 °C -3.9 °F /  -19.9 °C 1004.3in /  34005.6hPa WNW 7.9mph /  12.7km/h 13.0mph /  20.9km/h 90% 0.0in /  0mm WeatherDisplay:10.37 W/m2 FEW
01:11 -2.6 °F /  -19.2 °C -3.9 °F /  -19.9 °C 1004.3in /  34005.6hPa NW 2.6mph /  4.2km/h 5.6mph /  9km/h 90% 0.0in /  0mm WeatherDisplay:10.37 W/m2 FEW
01:17 -2.6 °F /  -19.2 °C -3.9 °F /  -19.9 °C 1004.3in /  34005.6hPa NNW 5.0mph /  8km/h 7.4mph /  11.9km/h 91% 0.0in /  0mm WeatherDisplay:10.37 W/m2 FEW
01:23 -2.6 °F /  -19.2 °C -3.9 °F /  -19.9 °C 1004.6in /  34015.8hPa NW 4.7mph /  7.6km/h 11.1mph /  17.9km/h 91% 0.0in /  0mm WeatherDisplay:10.37 W/m2 FEW
01:28 -2.7 °F /  -19.3 °C -3.9 °F /  -19.9 °C 1004.6in /  34015.8hPa WSW 1.1mph /  1.8km/h 3.7mph /  6km/h 91% 0.0in /  0mm WeatherDisplay:10.37 W/m2 FEW
01:33 -2.7 °F /  -19.3 °C -3.9 °F /  -19.9 °C 1005.0in /  34029.3hPa NNW 7.4mph /  11.9km/h 14.8mph /  23.8km/h 91% 0.0in /  0mm WeatherDisplay:10.37 W/m2 FEW
01:38 -2.7 °F /  -19.3 °C -4.0 °F /  -20 °C 1005.0in /  34029.3hPa NNW 7.9mph /  12.7km/h 16.7mph /  26.9km/h 91% 0.0in /  0mm WeatherDisplay:10.37 W/m2 FEW
01:43 -2.7 °F /  -19.3 °C -4.0 °F /  -20 °C 1005.3in /  34039.5hPa NNW 5.1mph /  8.2km/h 14.8mph /  23.8km/h 91% 0.0in /  0mm WeatherDisplay:10.37 W/m2 FEW
01:48 -2.7 °F /  -19.3 °C -4.1 °F /  -20.1 °C 1005.3in /  34039.5hPa WNW 6.6mph /  10.6km/h 7.4mph /  11.9km/h 90% 0.0in /  0mm WeatherDisplay:10.37 W/m2 FEW
01:53 -2.7 °F /  -19.3 °C -4.1 °F /  -20.1 °C 1005.3in /  34039.5hPa NW 1.6mph /  2.6km/h 9.3mph /  15km/h 90% 0.0in /  0mm WeatherDisplay:10.37 W/m2 FEW
01:59 -2.7 °F /  -19.3 °C -4.2 °F /  -20.1 °C 1005.6in /  34049.6hPa NW 2.3mph /  3.7km/h 5.6mph /  9km/h 89% 0.0in /  0mm WeatherDisplay:10.37 W/m2 FEW
02:05 -2.7 °F /  -19.3 °C -4.2 °F /  -20.1 °C 1005.6in /  34049.6hPa North 6.6mph /  10.6km/h 14.8mph /  23.8km/h 89% 0.0in /  0mm WeatherDisplay:10.37 W/m2 FEW
02:11 -2.7 °F /  -19.3 °C -4.2 °F /  -20.1 °C 1005.6in /  34049.6hPa WNW 7.7mph /  12.4km/h 14.8mph /  23.8km/h 89% 0.0in /  0mm WeatherDisplay:10.37 W/m2 FEW
02:16 -2.7 °F /  -19.3 °C -4.4 °F /  -20.2 °C 1006.0in /  34063.2hPa NNW 3.9mph /  6.3km/h 16.7mph /  26.9km/h 88% 0.0in /  0mm WeatherDisplay:10.37 W/m2 FEW
02:21 -2.7 °F /  -19.3 °C -4.4 °F /  -20.2 °C 1006.0in /  34063.2hPa NW 7.9mph /  12.7km/h 16.1mph /  25.9km/h 88% 0.0in /  0mm WeatherDisplay:10.37 W/m2 FEW
02:26 -2.7 °F /  -19.3 °C -4.6 °F /  -20.3 °C 1006.0in /  34063.2hPa NNW 2.7mph /  4.3km/h 7.4mph /  11.9km/h 87% 0.0in /  0mm WeatherDisplay:10.37 W/m2 FEW
02:31 -2.8 °F /  -19.3 °C -4.7 °F /  -20.4 °C 1006.3in /  34073.3hPa WNW 4.5mph /  7.2km/h 13.0mph /  20.9km/h 87% 0.0in /  0mm WeatherDisplay:10.37 W/m2 FEW
02:37 -2.8 °F /  -19.3 °C -4.7 °F /  -20.4 °C 1006.3in /  34073.3hPa WNW 7.6mph /  12.2km/h 14.8mph /  23.8km/h 87% 0.0in /  0mm WeatherDisplay:10.37 W/m2 FEW
02:42 -2.8 °F /  -19.3 °C -4.7 °F /  -20.4 °C 1006.3in /  34073.3hPa NNW 4.3mph /  6.9km/h 14.8mph /  23.8km/h 87% 0.0in /  0mm WeatherDisplay:10.37 W/m2 FEW
02:47 -2.8 °F /  -19.3 °C -5.0 °F /  -20.6 °C 1006.7in /  34086.9hPa NNW 8.0mph /  12.9km/h 18.5mph /  29.8km/h 85% 0.0in /  0mm WeatherDisplay:10.37 W/m2 FEW
02:53 -2.9 °F /  -19.4 °C -5.1 °F /  -20.6 °C 1006.7in /  34086.9hPa NNW 6.0mph /  9.7km/h 13.0mph /  20.9km/h 85% 0.0in /  0mm WeatherDisplay:10.37 W/m2 FEW
02:55 -2.9 °F /  -19.4 °C -5.1 °F /  -20.6 °C 1006.7in /  34086.9hPa NNW 1.3mph /  2.1km/h 9.3mph /  15km/h 85% 0.0in /  0mm WeatherDisplay:10.37 W/m2 FEW
03:00 -2.9 °F /  -19.4 °C -5.1 °F /  -20.6 °C 1007.0in /  34097hPa NNW 7.2mph /  11.6km/h 16.7mph /  26.9km/h 85% 0.0in /  0mm WeatherDisplay:10.37 W/m2 FEW
03:05 -3.0 °F /  -19.4 °C -5.3 °F /  -20.7 °C 1007.0in /  34097hPa NNW 4.3mph /  6.9km/h 19.3mph /  31.1km/h 84% 0.0in /  0mm WeatherDisplay:10.37 W/m2 FEW
03:10 -3.1 °F /  -19.5 °C -5.4 °F /  -20.8 °C 1007.0in /  34097hPa West 5.3mph /  8.5km/h 11.3mph /  18.2km/h 84% 0.0in /  0mm WeatherDisplay:10.37 W/m2 FEW
03:15 -3.1 °F /  -19.5 °C -5.6 °F /  -20.9 °C 1007.3in /  34107.2hPa NNW 1.3mph /  2.1km/h 13.0mph /  20.9km/h 83% 0.0in /  0mm WeatherDisplay:10.37 W/m2 FEW
03:21 -3.2 °F /  -19.6 °C -5.7 °F /  -20.9 °C 1007.3in /  34107.2hPa NW 3.7mph /  6km/h 13.0mph /  20.9km/h 83% 0.0in /  0mm WeatherDisplay:10.37 W/m2 FEW
03:26 -3.2 °F /  -19.6 °C -5.7 °F /  -20.9 °C 1007.7in /  34120.7hPa NNW 1.9mph /  3.1km/h 5.6mph /  9km/h 83% 0.0in /  0mm WeatherDisplay:10.37 W/m2 FEW
03:31 -3.3 °F /  -19.6 °C -5.9 °F /  -21.1 °C 1007.7in /  34120.7hPa NNW 0.8mph /  1.3km/h 5.6mph /  9km/h 82% 0.0in /  0mm WeatherDisplay:10.37 W/m2 FEW
03:34 -3.3 °F /  -19.6 °C -5.8 °F /  -21 °C 1007.7in /  34120.7hPa NNW 1.3mph /  2.1km/h 9.3mph /  15km/h 83% 0.0in /  0mm WeatherDisplay:10.37 W/m2 FEW
03:39 -3.4 °F /  -19.7 °C -5.9 °F /  -21.1 °C 1007.7in /  34120.7hPa NNW 5.6mph /  9km/h 11.1mph /  17.9km/h 83% 0.0in /  0mm WeatherDisplay:10.37 W/m2 FEW
03:44 -3.5 °F /  -19.7 °C -5.9 °F /  -21.1 °C 1008.0in /  34130.9hPa WNW 5.3mph /  8.5km/h 7.4mph /  11.9km/h 83% 0.0in /  0mm WeatherDisplay:10.37 W/m2 FEW
03:49 -3.6 °F /  -19.8 °C -6.0 °F /  -21.1 °C 1008.0in /  34130.9hPa NW 9.5mph /  15.3km/h 16.7mph /  26.9km/h 83% 0.0in /  0mm WeatherDisplay:10.37 W/m2 FEW
03:55 -3.7 °F /  -19.8 °C -6.1 °F /  -21.2 °C 1008.4in /  34144.4hPa WNW 3.5mph /  5.6km/h 13.0mph /  20.9km/h 83% 0.0in /  0mm WeatherDisplay:10.37 W/m2 FEW
03:59 -3.7 °F /  -19.8 °C -6.1 °F /  -21.2 °C 1008.4in /  34144.4hPa NNW 5.0mph /  8km/h 14.8mph /  23.8km/h 83% 0.0in /  0mm WeatherDisplay:10.37 W/m2 FEW
04:04 -3.8 °F /  -19.9 °C -6.2 °F /  -21.2 °C 1008.4in /  34144.4hPa NW 6.0mph /  9.7km/h 18.5mph /  29.8km/h 83% 0.0in /  0mm WeatherDisplay:10.37 W/m2 FEW
04:09 -3.8 °F /  -19.9 °C -6.3 °F /  -21.3 °C 1008.7in /  34154.6hPa NNW 3.7mph /  6km/h 7.4mph /  11.9km/h 83% 0.0in /  0mm WeatherDisplay:10.37 W/m2 FEW
04:14 -3.9 °F /  -19.9 °C -6.2 °F /  -21.2 °C 1008.7in /  34154.6hPa NNW 5.3mph /  8.5km/h 9.3mph /  15km/h 84% 0.0in /  0mm WeatherDisplay:10.37 W/m2 FEW
04:19 -3.9 °F /  -19.9 °C -6.4 °F /  -21.3 °C 1008.7in /  34154.6hPa NW 1.1mph /  1.8km/h 9.3mph /  15km/h 83% 0.0in /  0mm WeatherDisplay:10.37 W/m2 FEW
04:24 -4.0 °F /  -20 °C -6.3 °F /  -21.3 °C 1008.7in /  34154.6hPa NW 4.3mph /  6.9km/h 6.4mph /  10.3km/h 84% 0.0in /  0mm WeatherDisplay:10.37 W/m2 FEW
04:30 -4.0 °F /  -20 °C -6.3 °F /  -21.3 °C 1009.0in /  34164.7hPa WSW 3.5mph /  5.6km/h 12.9mph /  20.8km/h 84% 0.0in /  0mm WeatherDisplay:10.37 W/m2 FEW
04:35 -4.0 °F /  -20 °C -6.3 °F /  -21.3 °C 1009.0in /  34164.7hPa NW 1.4mph /  2.3km/h 18.5mph /  29.8km/h 84% 0.0in /  0mm WeatherDisplay:10.37 W/m2 FEW
04:40 -4.0 °F /  -20 °C -6.3 °F /  -21.3 °C 1009.0in /  34164.7hPa WNW 1.9mph /  3.1km/h 3.7mph /  6km/h 84% 0.0in /  0mm WeatherDisplay:10.37 W/m2 FEW
04:45 -4.0 °F /  -20 °C -6.3 °F /  -21.3 °C 1009.0in /  34164.7hPa NNW 3.4mph /  5.5km/h 13.0mph /  20.9km/h 84% 0.0in /  0mm WeatherDisplay:10.37 W/m2 FEW
04:51 -4.0 °F /  -20 °C -6.3 °F /  -21.3 °C 1009.4in /  34178.3hPa Calm     84% 0.0in /  0mm WeatherDisplay:10.37 W/m2 FEW
04:52 -4.0 °F /  -20 °C -6.3 °F /  -21.3 °C 1009.4in /  34178.3hPa NW 1.6mph /  2.6km/h 6.4mph /  10.3km/h 84% 0.0in /  0mm WeatherDisplay:10.37 W/m2 FEW
04:57 -4.0 °F /  -20 °C -6.3 °F /  -21.3 °C 1009.4in /  34178.3hPa Calm     84% 0.0in /  0mm WeatherDisplay:10.37 W/m2 FEW
04:59 -4.1 °F /  -20.1 °C -6.3 °F /  -21.3 °C 1009.4in /  34178.3hPa NW 2.6mph /  4.2km/h 5.6mph /  9km/h 84% 0.0in /  0mm WeatherDisplay:10.37 W/m2 FEW
05:05 -4.1 °F /  -20.1 °C -6.3 °F /  -21.3 °C 1009.4in /  34178.3hPa Calm     84% 0.0in /  0mm WeatherDisplay:10.37 W/m2 FEW
05:10 -4.1 °F /  -20.1 °C -6.3 °F /  -21.3 °C 1009.7in /  34188.4hPa WNW 1.6mph /  2.6km/h 7.4mph /  11.9km/h 85% 0.0in /  0mm WeatherDisplay:10.37 W/m2 FEW
05:17 -4.2 °F /  -20.1 °C -6.3 °F /  -21.3 °C 1009.7in /  34188.4hPa Calm     85% 0.0in /  0mm WeatherDisplay:10.37 W/m2 FEW
05:22 -4.2 °F /  -20.1 °C -6.2 °F /  -21.2 °C 1009.7in /  34188.4hPa Calm     86% 0.0in /  0mm WeatherDisplay:10.37 W/m2 FEW
05:27 -4.3 °F /  -20.2 °C -6.1 °F /  -21.2 °C 1009.7in /  34188.4hPa SW 0.3mph /  0.5km/h 3.2mph /  5.1km/h 87% 0.0in /  0mm WeatherDisplay:10.37 W/m2 FEW
05:33 -4.3 °F /  -20.2 °C -6.2 °F /  -21.2 °C 1009.7in /  34188.4hPa NNW 1.3mph /  2.1km/h 4.8mph /  7.7km/h 87% 0.0in /  0mm WeatherDisplay:10.37 W/m2 FEW
05:38 -4.3 °F /  -20.2 °C -6.2 °F /  -21.2 °C 1009.7in /  34188.4hPa WNW 2.1mph /  3.4km/h 2.1mph /  3.4km/h 87% 0.0in /  0mm WeatherDisplay:10.37 W/m2 FEW
05:44 -4.3 °F /  -20.2 °C -6.2 °F /  -21.2 °C 1009.7in /  34188.4hPa Calm   5.6mph /  9km/h 87% 0.0in /  0mm WeatherDisplay:10.37 W/m2 FEW
05:50 -4.4 °F /  -20.2 °C -6.1 °F /  -21.2 °C 1010.0in /  34198.6hPa Calm     88% 0.0in /  0mm WeatherDisplay:10.37 W/m2 FEW
05:55 -4.4 °F /  -20.2 °C -6.1 °F /  -21.2 °C 1010.0in /  34198.6hPa Calm     88% 0.0in /  0mm WeatherDisplay:10.37 W/m2 FEW
06:00 -4.4 °F /  -20.2 °C -6.1 °F /  -21.2 °C 1010.0in /  34198.6hPa Calm     88% 0.0in /  0mm WeatherDisplay:10.37 W/m2 FEW
06:05 -4.4 °F /  -20.2 °C -6.1 °F /  -21.2 °C 1010.4in /  34212.1hPa WNW 0.5mph /  0.8km/h 7.4mph /  11.9km/h 88% 0.0in /  0mm WeatherDisplay:10.37 W/m2 FEW
06:10 -4.4 °F /  -20.2 °C -6.0 °F /  -21.1 °C 1010.4in /  34212.1hPa NW 0.2mph /  0.3km/h 5.6mph /  9km/h 89% 0.0in /  0mm WeatherDisplay:10.37 W/m2 FEW
06:16 -4.4 °F /  -20.2 °C -6.0 °F /  -21.1 °C 1010.4in /  34212.1hPa Calm     89% 0.0in /  0mm WeatherDisplay:10.37 W/m2 FEW
06:21 -4.4 °F /  -20.2 °C -6.0 °F /  -21.1 °C 1010.4in /  34212.1hPa NW 2.6mph /  4.2km/h 3.7mph /  6km/h 89% 0.0in /  0mm WeatherDisplay:10.37 W/m2 FEW
06:27 -4.4 °F /  -20.2 °C -6.0 °F /  -21.1 °C 1010.4in /  34212.1hPa SW 0.2mph /  0.3km/h 3.7mph /  6km/h 89% 0.0in /  0mm WeatherDisplay:10.37 W/m2 FEW
06:32 -4.4 °F /  -20.2 °C -5.8 °F /  -21 °C 1010.4in /  34212.1hPa SW 0.6mph /  1km/h 3.7mph /  6km/h 90% 0.0in /  0mm WeatherDisplay:10.37 W/m2 FEW
06:37 -4.4 °F /  -20.2 °C -5.8 °F /  -21 °C 1010.7in /  34222.3hPa Calm     90% 0.0in /  0mm WeatherDisplay:10.37 W/m2 FEW
06:42 -4.4 °F /  -20.2 °C -5.8 °F /  -21 °C 1010.7in /  34222.3hPa West 0.6mph /  1km/h 3.7mph /  6km/h 90% 0.0in /  0mm WeatherDisplay:10.37 W/m2 FEW
06:47 -4.4 °F /  -20.2 °C -5.8 °F /  -21 °C 1010.7in /  34222.3hPa West 1.3mph /  2.1km/h 3.7mph /  6km/h 90% 0.0in /  0mm WeatherDisplay:10.37 W/m2 FEW
06:52 -4.3 °F /  -20.2 °C -5.7 °F /  -20.9 °C 1010.7in /  34222.3hPa Calm   5.6mph /  9km/h 90% 0.0in /  0mm WeatherDisplay:10.37 W/m2 FEW
06:58 -4.3 °F /  -20.2 °C -5.7 °F /  -20.9 °C 1010.7in /  34222.3hPa Calm   1.9mph /  3.1km/h 90% 0.0in /  0mm WeatherDisplay:10.37 W/m2 FEW
07:03 -4.3 °F /  -20.2 °C -5.7 °F /  -20.9 °C 1011.1in /  34235.8hPa West 0.8mph /  1.3km/h 5.6mph /  9km/h 90% 0.0in /  0mm WeatherDisplay:10.37 W/m2 FEW
07:08 -4.3 °F /  -20.2 °C -5.7 °F /  -20.9 °C 1011.1in /  34235.8hPa West 1.3mph /  2.1km/h 3.7mph /  6km/h 90% 0.0in /  0mm WeatherDisplay:10.37 W/m2 FEW
07:13 -4.2 °F /  -20.1 °C -5.6 °F /  -20.9 °C 1011.1in /  34235.8hPa Calm   1.9mph /  3.1km/h 90% 0.0in /  0mm WeatherDisplay:10.37 W/m2 FEW
07:18 -4.2 °F /  -20.1 °C -5.6 °F /  -20.9 °C 1011.1in /  34235.8hPa Calm     90% 0.0in /  0mm WeatherDisplay:10.37 W/m2 FEW
07:23 -4.2 °F /  -20.1 °C -5.7 °F /  -20.9 °C 1011.1in /  34235.8hPa Calm   1.9mph /  3.1km/h 89% 0.0in /  0mm WeatherDisplay:10.37 W/m2 FEW
07:28 -4.0 °F /  -20 °C -5.6 °F /  -20.9 °C 1011.1in /  34235.8hPa NNW 2.4mph /  3.9km/h 7.4mph /  11.9km/h 89% 0.0in /  0mm WeatherDisplay:10.37 W/m2 FEW
07:33 -3.9 °F /  -19.9 °C -5.5 °F /  -20.8 °C 1011.1in /  34235.8hPa NW 0.8mph /  1.3km/h 3.7mph /  6km/h 89% 0.0in /  0mm WeatherDisplay:10.37 W/m2 FEW
07:38 -3.9 °F /  -19.9 °C -5.5 °F /  -20.8 °C 1011.4in /  34246hPa Calm   3.7mph /  6km/h 89% 0.0in /  0mm WeatherDisplay:10.37 W/m2 FEW
07:43 -3.9 °F /  -19.9 °C -5.5 °F /  -20.8 °C 1011.4in /  34246hPa West 0.3mph /  0.5km/h 5.6mph /  9km/h 89% 0.0in /  0mm WeatherDisplay:10.37 W/m2 FEW
07:48 -3.9 °F /  -19.9 °C -5.5 °F /  -20.8 °C 1011.4in /  34246hPa South 1.4mph /  2.3km/h 5.6mph /  9km/h 89% 0.0in /  0mm WeatherDisplay:10.37 W/m2 FEW
07:54 -4.0 °F /  -20 °C -5.6 °F /  -20.9 °C 1011.4in /  34246hPa WSW 0.5mph /  0.8km/h 3.7mph /  6km/h 89% 0.0in /  0mm WeatherDisplay:10.37 W/m2 FEW
07:59 -4.0 °F /  -20 °C -5.6 °F /  -20.9 °C 1011.4in /  34246hPa NW 1.8mph /  2.9km/h 5.6mph /  9km/h 89% 0.0in /  0mm WeatherDisplay:10.37 W/m2 FEW
08:04 -4.0 °F /  -20 °C -5.6 °F /  -20.9 °C 1011.7in /  34256.2hPa Calm   5.6mph /  9km/h 89% 0.0in /  0mm WeatherDisplay:10.37 W/m2 FEW
08:09 -4.1 °F /  -20.1 °C -5.6 °F /  -20.9 °C 1011.7in /  34256.2hPa North 1.1mph /  1.8km/h 5.6mph /  9km/h 89% 0.0in /  0mm WeatherDisplay:10.37 W/m2 FEW
08:15 -4.1 °F /  -20.1 °C -5.7 °F /  -20.9 °C 1011.7in /  34256.2hPa WSW 0.6mph /  1km/h 5.6mph /  9km/h 89% 0.0in /  0mm WeatherDisplay:10.37 W/m2 FEW
08:20 -4.1 °F /  -20.1 °C -5.6 °F /  -20.9 °C 1011.7in /  34256.2hPa WSW 0.3mph /  0.5km/h 1.9mph /  3.1km/h 89% 0.0in /  0mm WeatherDisplay:10.37 W/m2 FEW
08:25 -4.0 °F /  -20 °C -5.6 °F /  -20.9 °C 1011.7in /  34256.2hPa WNW 0.3mph /  0.5km/h 5.6mph /  9km/h 89% 0.0in /  0mm WeatherDisplay:10.37 W/m2 FEW
08:30 -3.9 °F /  -19.9 °C -5.5 °F /  -20.8 °C 1011.7in /  34256.2hPa West 1.3mph /  2.1km/h 1.9mph /  3.1km/h 89% 0.0in /  0mm WeatherDisplay:10.37 W/m2 FEW
08:36 -3.9 °F /  -19.9 °C -5.5 °F /  -20.8 °C 1011.7in /  34256.2hPa Calm     89% 0.0in /  0mm WeatherDisplay:10.37 W/m2 FEW
08:42 -3.9 °F /  -19.9 °C -5.5 °F /  -20.8 °C 1012.1in /  34269.7hPa West 0.3mph /  0.5km/h 1.9mph /  3.1km/h 89% 0.0in /  0mm WeatherDisplay:10.37 W/m2 FEW
08:46 -3.9 °F /  -19.9 °C -5.5 °F /  -20.8 °C 1012.1in /  34269.7hPa Calm   5.6mph /  9km/h 89% 0.0in /  0mm WeatherDisplay:10.37 W/m2 FEW
08:51 -3.8 °F /  -19.9 °C -5.4 °F /  -20.8 °C 1012.1in /  34269.7hPa NW 0.2mph /  0.3km/h 14.8mph /  23.8km/h 89% 0.0in /  0mm WeatherDisplay:10.37 W/m2 FEW
08:56 -3.8 °F /  -19.9 °C -5.3 °F /  -20.7 °C 1012.1in /  34269.7hPa Calm     89% 0.0in /  0mm WeatherDisplay:10.37 W/m2 FEW
09:02 -3.8 °F /  -19.9 °C -5.3 °F /  -20.7 °C 1012.1in /  34269.7hPa WSW 1.1mph /  1.8km/h 3.7mph /  6km/h 89% 0.0in /  0mm WeatherDisplay:10.37 W/m2 FEW
09:07 -3.7 °F /  -19.8 °C -5.3 °F /  -20.7 °C 1012.4in /  34279.9hPa NNW 0.8mph /  1.3km/h 3.7mph /  6km/h 89% 0.0in /  0mm WeatherDisplay:10.37 W/m2 FEW
09:12 -3.7 °F /  -19.8 °C -5.2 °F /  -20.7 °C 1012.4in /  34279.9hPa West 1.8mph /  2.9km/h 9.3mph /  15km/h 89% 0.0in /  0mm WeatherDisplay:10.37 W/m2 FEW
09:17 -3.5 °F /  -19.7 °C -5.1 °F /  -20.6 °C 1012.4in /  34279.9hPa Calm   3.7mph /  6km/h 89% 0.0in /  0mm WeatherDisplay:10.37 W/m2 FEW
09:22 -3.4 °F /  -19.7 °C -5.0 °F /  -20.6 °C 1012.8in /  34293.4hPa Calm   5.6mph /  9km/h 89% 0.0in /  0mm WeatherDisplay:10.37 W/m2 FEW
09:27 -3.4 °F /  -19.7 °C -5.0 °F /  -20.6 °C 1012.8in /  34293.4hPa WNW 3.9mph /  6.3km/h 13.0mph /  20.9km/h 89% 0.0in /  0mm WeatherDisplay:10.37 W/m2 FEW
09:32 -3.4 °F /  -19.7 °C -5.1 °F /  -20.6 °C 1012.8in /  34293.4hPa NW 0.5mph /  0.8km/h 5.6mph /  9km/h 88% 0.0in /  0mm WeatherDisplay:10.37 W/m2 FEW
09:37 -3.3 °F /  -19.6 °C -5.1 °F /  -20.6 °C 1012.8in /  34293.4hPa West 3.5mph /  5.6km/h 5.6mph /  9km/h 88% 0.0in /  0mm WeatherDisplay:10.37 W/m2 FEW
09:42 -3.3 °F /  -19.6 °C -5.1 °F /  -20.6 °C 1013.1in /  34303.6hPa WNW 3.1mph /  5km/h 9.3mph /  15km/h 88% 0.0in /  0mm WeatherDisplay:10.37 W/m2 FEW
09:47 -3.3 °F /  -19.6 °C -5.0 °F /  -20.6 °C 1013.1in /  34303.6hPa WNW 0.3mph /  0.5km/h 4.8mph /  7.7km/h 88% 0.0in /  0mm WeatherDisplay:10.37 W/m2 FEW
09:52 -3.3 °F /  -19.6 °C -5.0 °F /  -20.6 °C 1013.1in /  34303.6hPa WNW 1.3mph /  2.1km/h 5.6mph /  9km/h 88% 0.0in /  0mm WeatherDisplay:10.37 W/m2 FEW
09:57 -3.2 °F /  -19.6 °C -4.9 °F /  -20.5 °C 1013.1in /  34303.6hPa WSW 1.0mph /  1.6km/h 5.6mph /  9km/h 88% 0.0in /  0mm WeatherDisplay:10.37 W/m2 FEW
10:02 -3.2 °F /  -19.6 °C -4.9 °F /  -20.5 °C 1013.1in /  34303.6hPa NW 1.4mph /  2.3km/h 7.4mph /  11.9km/h 88% 0.0in /  0mm WeatherDisplay:10.37 W/m2 FEW
10:08 -3.2 °F /  -19.6 °C -4.9 °F /  -20.5 °C 1013.4in /  34313.7hPa West 1.8mph /  2.9km/h 5.6mph /  9km/h 88% 0.0in /  0mm WeatherDisplay:10.37 W/m2 FEW
10:13 -3.2 °F /  -19.6 °C -4.9 °F /  -20.5 °C 1013.4in /  34313.7hPa WNW 0.3mph /  0.5km/h 18.5mph /  29.8km/h 88% 0.0in /  0mm WeatherDisplay:10.37 W/m2 FEW
10:18 -3.1 °F /  -19.5 °C -4.8 °F /  -20.4 °C 1013.4in /  34313.7hPa WNW 3.5mph /  5.6km/h 9.7mph /  15.6km/h 88% 0.0in /  0mm WeatherDisplay:10.37 W/m2 FEW
10:24 -3.1 °F /  -19.5 °C -4.8 °F /  -20.4 °C 1013.4in /  34313.7hPa Calm     88% 0.0in /  0mm WeatherDisplay:10.37 W/m2 FEW
10:30 -2.9 °F /  -19.4 °C -4.7 °F /  -20.4 °C 1013.4in /  34313.7hPa NW 1.1mph /  1.8km/h 5.6mph /  9km/h 88% 0.0in /  0mm WeatherDisplay:10.37 W/m2 FEW
10:35 -2.9 °F /  -19.4 °C -4.6 °F /  -20.3 °C 1013.4in /  34313.7hPa West 1.8mph /  2.9km/h 5.6mph /  9km/h 88% 0.0in /  0mm WeatherDisplay:10.37 W/m2 FEW
10:40 -2.8 °F /  -19.3 °C -4.7 °F /  -20.4 °C 1013.4in /  34313.7hPa WNW 1.4mph /  2.3km/h 5.6mph /  9km/h 87% 0.0in /  0mm WeatherDisplay:10.37 W/m2 FEW
10:45 -2.8 °F /  -19.3 °C -4.5 °F /  -20.3 °C 1013.8in /  34327.3hPa WNW 1.1mph /  1.8km/h 3.7mph /  6km/h 88% 0.0in /  0mm WeatherDisplay:10.37 W/m2 FEW
10:50 -2.7 °F /  -19.3 °C -4.6 °F /  -20.3 °C 1013.8in /  34327.3hPa West 1.4mph /  2.3km/h 5.6mph /  9km/h 87% 0.0in /  0mm WeatherDisplay:10.37 W/m2 FEW
10:55 -2.6 °F /  -19.2 °C -4.5 °F /  -20.3 °C 1013.8in /  34327.3hPa Calm   3.7mph /  6km/h 87% 0.0in /  0mm WeatherDisplay:10.37 W/m2 FEW
11:00 -2.6 °F /  -19.2 °C -4.4 °F /  -20.2 °C 1014.1in /  34337.4hPa West 1.6mph /  2.6km/h 5.6mph /  9km/h 87% 0.0in /  0mm WeatherDisplay:10.37 W/m2 FEW
11:06 -2.5 °F /  -19.2 °C -4.4 °F /  -20.2 °C 1014.1in /  34337.4hPa Calm   5.6mph /  9km/h 87% 0.0in /  0mm WeatherDisplay:10.37 W/m2 FEW
11:11 -2.5 °F /  -19.2 °C -4.2 °F /  -20.1 °C 1014.1in /  34337.4hPa WNW 1.6mph /  2.6km/h 6.4mph /  10.3km/h 88% 0.0in /  0mm WeatherDisplay:10.37 W/m2 FEW
11:16 -2.4 °F /  -19.1 °C -4.3 °F /  -20.2 °C 1014.1in /  34337.4hPa Calm   13.0mph /  20.9km/h 87% 0.0in /  0mm WeatherDisplay:10.37 W/m2 FEW
11:22 -2.4 °F /  -19.1 °C -4.3 °F /  -20.2 °C 1014.1in /  34337.4hPa NW 1.6mph /  2.6km/h 4.8mph /  7.7km/h 87% 0.0in /  0mm WeatherDisplay:10.37 W/m2 FEW
11:27 -2.3 °F /  -19.1 °C -4.2 °F /  -20.1 °C 1014.1in /  34337.4hPa WNW 1.6mph /  2.6km/h 5.6mph /  9km/h 87% 0.0in /  0mm WeatherDisplay:10.37 W/m2 FEW
11:32 -2.2 °F /  -19 °C -4.1 °F /  -20.1 °C 1014.1in /  34337.4hPa West 6.8mph /  10.9km/h 16.7mph /  26.9km/h 87% 0.0in /  0mm WeatherDisplay:10.37 W/m2 FEW
11:35 -2.2 °F /  -19 °C -4.1 °F /  -20.1 °C 1014.1in /  34337.4hPa NW 2.7mph /  4.3km/h 5.6mph /  9km/h 87% 0.0in /  0mm WeatherDisplay:10.37 W/m2 FEW
11:40 -2.1 °F /  -18.9 °C -4.0 °F /  -20 °C 1014.1in /  34337.4hPa West 5.1mph /  8.2km/h 13.0mph /  20.9km/h 87% 0.0in /  0mm WeatherDisplay:10.37 W/m2 FEW
11:45 -2.0 °F /  -18.9 °C -3.9 °F /  -19.9 °C 1014.1in /  34337.4hPa WNW 0.3mph /  0.5km/h 11.1mph /  17.9km/h 87% 0.0in /  0mm WeatherDisplay:10.37 W/m2 FEW
11:50 -2.0 °F /  -18.9 °C -4.1 °F /  -20.1 °C 1014.1in /  34337.4hPa NNW 0.6mph /  1km/h 5.6mph /  9km/h 86% 0.0in /  0mm WeatherDisplay:10.37 W/m2 FEW
11:56 -1.9 °F /  -18.8 °C -4.0 °F /  -20 °C 1014.1in /  34337.4hPa West 1.8mph /  2.9km/h 5.6mph /  9km/h 86% 0.0in /  0mm WeatherDisplay:10.37 W/m2 FEW
12:01 -1.8 °F /  -18.8 °C -3.7 °F /  -19.8 °C 1014.1in /  34337.4hPa NW 2.7mph /  4.3km/h 8.0mph /  12.9km/h 87% 0.0in /  0mm WeatherDisplay:10.37 W/m2 FEW
12:06 -1.8 °F /  -18.8 °C -3.8 °F /  -19.9 °C 1014.1in /  34337.4hPa West 3.5mph /  5.6km/h 5.6mph /  9km/h 86% 0.0in /  0mm WeatherDisplay:10.37 W/m2 FEW
12:11 -1.7 °F /  -18.7 °C -3.8 °F /  -19.9 °C 1014.1in /  34337.4hPa WNW 2.6mph /  4.2km/h 6.4mph /  10.3km/h 86% 0.0in /  0mm WeatherDisplay:10.37 W/m2 FEW
12:16 -1.7 °F /  -18.7 °C -3.7 °F /  -19.8 °C 1014.1in /  34337.4hPa WNW 2.4mph /  3.9km/h 5.6mph /  9km/h 86% 0.0in /  0mm WeatherDisplay:10.37 W/m2 FEW
12:17 -1.7 °F /  -18.7 °C -3.7 °F /  -19.8 °C 1014.1in /  34337.4hPa WNW 0.6mph /  1km/h 5.6mph /  9km/h 86% 0.0in /  0mm WeatherDisplay:10.37 W/m2 FEW
12:28 -1.6 °F /  -18.7 °C -3.7 °F /  -19.8 °C 1014.1in /  34337.4hPa NW 4.5mph /  7.2km/h 11.1mph /  17.9km/h 85% 0.0in /  0mm WeatherDisplay:10.37 W/m2 FEW
12:33 -1.5 °F /  -18.6 °C -3.7 °F /  -19.8 °C 1014.1in /  34337.4hPa West 5.1mph /  8.2km/h 13.0mph /  20.9km/h 85% 0.0in /  0mm WeatherDisplay:10.37 W/m2 FEW
12:38 -1.4 °F /  -18.6 °C -3.7 °F /  -19.8 °C 1014.1in /  34337.4hPa NW 2.6mph /  4.2km/h 13.0mph /  20.9km/h 85% 0.0in /  0mm WeatherDisplay:10.37 W/m2 FEW
12:43 -1.4 °F /  -18.6 °C -3.7 °F /  -19.8 °C 1014.1in /  34337.4hPa NW 1.4mph /  2.3km/h 5.6mph /  9km/h 85% 0.0in /  0mm WeatherDisplay:10.37 W/m2 FEW
12:48 -1.4 °F /  -18.6 °C -3.7 °F /  -19.8 °C 1013.8in /  34327.3hPa WNW 2.1mph /  3.4km/h 5.6mph /  9km/h 85% 0.0in /  0mm WeatherDisplay:10.37 W/m2 FEW
12:53 -1.4 °F /  -18.6 °C -3.7 °F /  -19.8 °C 1013.8in /  34327.3hPa WNW 2.1mph /  3.4km/h 4.8mph /  7.7km/h 85% 0.0in /  0mm WeatherDisplay:10.37 W/m2 FEW
13:03 -1.3 °F /  -18.5 °C -3.7 °F /  -19.8 °C 1014.1in /  34337.4hPa WNW 1.9mph /  3.1km/h 3.7mph /  6km/h 84% 0.0in /  0mm WeatherDisplay:10.37 W/m2 FEW
13:08 -1.3 °F /  -18.5 °C -3.7 °F /  -19.8 °C 1014.1in /  34337.4hPa NW 5.3mph /  8.5km/h 9.3mph /  15km/h 84% 0.0in /  0mm WeatherDisplay:10.37 W/m2 FEW
13:13 -1.3 °F /  -18.5 °C -3.6 °F /  -19.8 °C 1014.1in /  34337.4hPa West 3.4mph /  5.5km/h 9.3mph /  15km/h 84% 0.0in /  0mm WeatherDisplay:10.37 W/m2 FEW
13:18 -1.2 °F /  -18.4 °C -3.7 °F /  -19.8 °C 1014.1in /  34337.4hPa SW 1.0mph /  1.6km/h 9.3mph /  15km/h 83% 0.0in /  0mm WeatherDisplay:10.37 W/m2 FEW
13:23 -1.2 °F /  -18.4 °C -3.7 °F /  -19.8 °C 1014.1in /  34337.4hPa WNW 4.3mph /  6.9km/h 9.3mph /  15km/h 83% 0.0in /  0mm WeatherDisplay:10.37 W/m2 FEW
13:29 -1.1 °F /  -18.4 °C -3.8 °F /  -19.9 °C 1014.1in /  34337.4hPa WSW 1.9mph /  3.1km/h 11.1mph /  17.9km/h 82% 0.0in /  0mm WeatherDisplay:10.37 W/m2 FEW
13:35 -1.1 °F /  -18.4 °C -3.8 °F /  -19.9 °C 1014.1in /  34337.4hPa WNW 6.3mph /  10.1km/h 18.5mph /  29.8km/h 82% 0.0in /  0mm WeatherDisplay:10.37 W/m2 FEW
13:40 -1.1 °F /  -18.4 °C -3.9 °F /  -19.9 °C 1014.1in /  34337.4hPa West 5.6mph /  9km/h 12.9mph /  20.8km/h 81% 0.0in /  0mm WeatherDisplay:10.37 W/m2 FEW
13:45 -1.1 °F /  -18.4 °C -3.7 °F /  -19.8 °C 1014.1in /  34337.4hPa NW 3.1mph /  5km/h 9.3mph /  15km/h 82% 0.0in /  0mm WeatherDisplay:10.37 W/m2 FEW
13:49 -1.0 °F /  -18.3 °C -3.7 °F /  -19.8 °C 1014.1in /  34337.4hPa North 3.1mph /  5km/h 16.7mph /  26.9km/h 82% 0.0in /  0mm WeatherDisplay:10.37 W/m2 FEW
13:55 -0.9 °F /  -18.3 °C -3.6 °F /  -19.8 °C 1014.1in /  34337.4hPa NW 3.7mph /  6km/h 9.3mph /  15km/h 82% 0.0in /  0mm WeatherDisplay:10.37 W/m2 FEW
14:01 -0.9 °F /  -18.3 °C -3.6 °F /  -19.8 °C 1014.1in /  34337.4hPa NNW 3.9mph /  6.3km/h 12.9mph /  20.8km/h 82% 0.0in /  0mm WeatherDisplay:10.37 W/m2 FEW
14:07 -0.8 °F /  -18.2 °C -3.5 °F /  -19.7 °C 1013.8in /  34327.3hPa NNW 2.3mph /  3.7km/h 5.6mph /  9km/h 82% 0.0in /  0mm WeatherDisplay:10.37 W/m2 FEW
14:12 -0.8 °F /  -18.2 °C -3.7 °F /  -19.8 °C 1013.8in /  34327.3hPa NNW 2.6mph /  4.2km/h 5.6mph /  9km/h 81% 0.0in /  0mm WeatherDisplay:10.37 W/m2 FEW
14:18 -0.9 °F /  -18.3 °C -3.7 °F /  -19.8 °C 1013.8in /  34327.3hPa NNW 1.1mph /  1.8km/h 5.6mph /  9km/h 81% 0.0in /  0mm WeatherDisplay:10.37 W/m2 FEW
14:23 -0.9 °F /  -18.3 °C -3.8 °F /  -19.9 °C 1013.8in /  34327.3hPa NNW 3.1mph /  5km/h 6.4mph /  10.3km/h 81% 0.0in /  0mm WeatherDisplay:10.37 W/m2 FEW
14:27 -0.9 °F /  -18.3 °C -3.8 °F /  -19.9 °C 1013.8in /  34327.3hPa WNW 4.2mph /  6.8km/h 13.0mph /  20.9km/h 81% 0.0in /  0mm WeatherDisplay:10.37 W/m2 FEW
14:32 -0.9 °F /  -18.3 °C -3.6 °F /  -19.8 °C 1013.8in /  34327.3hPa Calm   11.1mph /  17.9km/h 82% 0.0in /  0mm WeatherDisplay:10.37 W/m2 FEW
14:37 -1.0 °F /  -18.3 °C -3.8 °F /  -19.9 °C 1013.8in /  34327.3hPa North 4.5mph /  7.2km/h 14.8mph /  23.8km/h 81% 0.0in /  0mm WeatherDisplay:10.37 W/m2 FEW
14:42 -0.9 °F /  -18.3 °C -3.6 °F /  -19.8 °C 1013.4in /  34313.7hPa West 5.0mph /  8km/h 7.4mph /  11.9km/h 82% 0.0in /  0mm WeatherDisplay:10.37 W/m2 FEW
14:47 -1.0 °F /  -18.3 °C -3.8 °F /  -19.9 °C 1013.4in /  34313.7hPa Calm     81% 0.0in /  0mm WeatherDisplay:10.37 W/m2 FEW
14:52 -1.1 °F /  -18.4 °C -3.7 °F /  -19.8 °C 1013.4in /  34313.7hPa NW 2.6mph /  4.2km/h 9.3mph /  15km/h 82% 0.0in /  0mm WeatherDisplay:10.37 W/m2 FEW
14:57 -1.1 °F /  -18.4 °C -3.7 °F /  -19.8 °C 1013.4in /  34313.7hPa WNW 0.8mph /  1.3km/h 5.6mph /  9km/h 82% 0.0in /  0mm WeatherDisplay:10.37 W/m2 FEW
15:02 -1.1 °F /  -18.4 °C -3.8 °F /  -19.9 °C 1013.4in /  34313.7hPa Calm     82% 0.0in /  0mm WeatherDisplay:10.37 W/m2 FEW
15:07 -1.2 °F /  -18.4 °C -3.7 °F /  -19.8 °C 1013.4in /  34313.7hPa SSE 1.4mph /  2.3km/h 7.4mph /  11.9km/h 83% 0.0in /  0mm WeatherDisplay:10.37 W/m2 FEW
15:12 -1.3 °F /  -18.5 °C -3.6 °F /  -19.8 °C 1013.4in /  34313.7hPa Calm     84% 0.0in /  0mm WeatherDisplay:10.37 W/m2 FEW
15:17 -1.3 °F /  -18.5 °C -3.7 °F /  -19.8 °C 1013.4in /  34313.7hPa Calm   3.7mph /  6km/h 84% 0.0in /  0mm WeatherDisplay:10.37 W/m2 FEW
15:23 -1.4 °F /  -18.6 °C -3.7 °F /  -19.8 °C 1013.1in /  34303.6hPa Calm   1.6mph /  2.6km/h 84% 0.0in /  0mm WeatherDisplay:10.37 W/m2 FEW
15:28 -1.4 °F /  -18.6 °C -3.6 °F /  -19.8 °C 1013.1in /  34303.6hPa Calm     85% 0.0in /  0mm WeatherDisplay:10.37 W/m2 FEW
15:38 -1.4 °F /  -18.6 °C -3.7 °F /  -19.8 °C 1013.1in /  34303.6hPa WSW 2.4mph /  3.9km/h 5.6mph /  9km/h 85% 0.0in /  0mm WeatherDisplay:10.37 W/m2 FEW
15:43 -1.4 °F /  -18.6 °C -3.7 °F /  -19.8 °C 1013.1in /  34303.6hPa SW 3.2mph /  5.1km/h 5.6mph /  9km/h 85% 0.0in /  0mm WeatherDisplay:10.37 W/m2 FEW
15:48 -1.4 °F /  -18.6 °C -3.7 °F /  -19.8 °C 1012.8in /  34293.4hPa Calm     85% 0.0in /  0mm WeatherDisplay:10.37 W/m2 FEW
15:54 -1.4 °F /  -18.6 °C -3.7 °F /  -19.8 °C 1013.1in /  34303.6hPa Calm     85% 0.0in /  0mm WeatherDisplay:10.37 W/m2 FEW
15:59 -1.4 °F /  -18.6 °C -3.7 °F /  -19.8 °C 1012.8in /  34293.4hPa WNW 0.8mph /  1.3km/h 5.6mph /  9km/h 85% 0.0in /  0mm WeatherDisplay:10.37 W/m2 FEW
16:04 -1.4 °F /  -18.6 °C -3.7 °F /  -19.8 °C 1012.8in /  34293.4hPa WSW 0.8mph /  1.3km/h 3.7mph /  6km/h 85% 0.0in /  0mm WeatherDisplay:10.37 W/m2 FEW
16:09 -1.4 °F /  -18.6 °C -3.8 °F /  -19.9 °C 1012.8in /  34293.4hPa Calm     84% 0.0in /  0mm WeatherDisplay:10.37 W/m2 FEW
16:14 -1.5 °F /  -18.6 °C -3.8 °F /  -19.9 °C 1012.8in /  34293.4hPa Calm     84% 0.0in /  0mm WeatherDisplay:10.37 W/m2 FEW
16:19 -1.5 °F /  -18.6 °C -4.0 °F /  -20 °C 1012.4in /  34279.9hPa Calm   1.9mph /  3.1km/h 83% 0.0in /  0mm WeatherDisplay:10.37 W/m2 FEW
16:22 -1.5 °F /  -18.6 °C -4.0 °F /  -20 °C 1012.4in /  34279.9hPa Calm   3.7mph /  6km/h 83% 0.0in /  0mm WeatherDisplay:10.37 W/m2 FEW
16:28 -1.5 °F /  -18.6 °C -3.8 °F /  -19.9 °C 1012.4in /  34279.9hPa SW 1.4mph /  2.3km/h 14.8mph /  23.8km/h 84% 0.0in /  0mm WeatherDisplay:10.37 W/m2 FEW
16:33 -1.5 °F /  -18.6 °C -3.8 °F /  -19.9 °C 1012.1in /  34269.7hPa Calm     84% 0.0in /  0mm WeatherDisplay:10.37 W/m2 FEW
16:38 -1.5 °F /  -18.6 °C -4.0 °F /  -20 °C 1012.1in /  34269.7hPa SSE 0.3mph /  0.5km/h 3.2mph /  5.1km/h 83% 0.0in /  0mm WeatherDisplay:10.37 W/m2 FEW
16:43 -1.5 °F /  -18.6 °C -4.0 °F /  -20 °C 1011.7in /  34256.2hPa Calm     83% 0.0in /  0mm WeatherDisplay:10.37 W/m2 FEW
16:48 -1.5 °F /  -18.6 °C -3.8 °F /  -19.9 °C 1011.7in /  34256.2hPa Calm     84% 0.0in /  0mm WeatherDisplay:10.37 W/m2 FEW
16:54 -1.5 °F /  -18.6 °C -3.8 °F /  -19.9 °C 1011.7in /  34256.2hPa WNW 1.1mph /  1.8km/h 5.6mph /  9km/h 84% 0.0in /  0mm WeatherDisplay:10.37 W/m2 FEW
16:59 -1.6 °F /  -18.7 °C -3.9 °F /  -19.9 °C 1011.4in /  34246hPa SE 2.1mph /  3.4km/h 3.7mph /  6km/h 84% 0.0in /  0mm WeatherDisplay:10.37 W/m2 FEW
17:05 -1.6 °F /  -18.7 °C -3.9 °F /  -19.9 °C 1011.1in /  34235.8hPa Calm     84% 0.0in /  0mm WeatherDisplay:10.37 W/m2 FEW
17:08 -1.6 °F /  -18.7 °C -3.9 °F /  -19.9 °C 1011.1in /  34235.8hPa SSW 0.8mph /  1.3km/h 3.7mph /  6km/h 84% 0.0in /  0mm WeatherDisplay:10.37 W/m2 FEW
17:13 -1.5 °F /  -18.6 °C -3.8 °F /  -19.9 °C 1011.1in /  34235.8hPa Calm     84% 0.0in /  0mm WeatherDisplay:10.37 W/m2 FEW
17:18 -1.5 °F /  -18.6 °C -4.0 °F /  -20 °C 1010.7in /  34222.3hPa SE 0.2mph /  0.3km/h 3.2mph /  5.1km/h 83% 0.0in /  0mm WeatherDisplay:10.37 W/m2 FEW
17:23 -1.4 °F /  -18.6 °C -3.8 °F /  -19.9 °C 1010.7in /  34222.3hPa Calm     84% 0.0in /  0mm WeatherDisplay:10.37 W/m2 FEW
17:28 -1.4 °F /  -18.6 °C -3.9 °F /  -19.9 °C 1010.7in /  34222.3hPa NNE 2.4mph /  3.9km/h 3.7mph /  6km/h 83% 0.0in /  0mm WeatherDisplay:10.37 W/m2 FEW
17:33 -1.3 °F /  -18.5 °C -3.9 °F /  -19.9 °C 1010.7in /  34222.3hPa WNW 1.0mph /  1.6km/h 5.6mph /  9km/h 82% 0.0in /  0mm WeatherDisplay:10.37 W/m2 FEW
17:39 -1.2 °F /  -18.4 °C -4.0 °F /  -20 °C 1010.4in /  34212.1hPa West 4.0mph /  6.4km/h 9.3mph /  15km/h 81% 0.0in /  0mm WeatherDisplay:10.37 W/m2 FEW
17:44 -1.1 °F /  -18.4 °C -4.1 °F /  -20.1 °C 1010.4in /  34212.1hPa WNW 3.9mph /  6.3km/h 11.1mph /  17.9km/h 80% 0.0in /  0mm WeatherDisplay:10.37 W/m2 FEW
17:49 -0.9 °F /  -18.3 °C -4.1 °F /  -20.1 °C 1010.0in /  34198.6hPa West 1.4mph /  2.3km/h 5.6mph /  9km/h 79% 0.0in /  0mm WeatherDisplay:10.37 W/m2 FEW
17:55 -0.8 °F /  -18.2 °C -4.1 °F /  -20.1 °C 1010.0in /  34198.6hPa WNW 3.2mph /  5.1km/h 7.4mph /  11.9km/h 78% 0.0in /  0mm WeatherDisplay:10.37 W/m2 FEW
18:00 -0.7 °F /  -18.2 °C -4.2 °F /  -20.1 °C 1010.0in /  34198.6hPa WSW 5.0mph /  8km/h 14.8mph /  23.8km/h 77% 0.0in /  0mm WeatherDisplay:10.37 W/m2 FEW
18:05 -0.4 °F /  -18 °C -4.2 °F /  -20.1 °C 1010.0in /  34198.6hPa SSW 4.8mph /  7.7km/h 11.3mph /  18.2km/h 76% 0.0in /  0mm WeatherDisplay:10.37 W/m2 FEW
18:10 -0.4 °F /  -18 °C -3.9 °F /  -19.9 °C 1010.0in /  34198.6hPa West 6.6mph /  10.6km/h 13.0mph /  20.9km/h 77% 0.0in /  0mm WeatherDisplay:10.37 W/m2 FEW
18:15 -0.4 °F /  -18 °C -3.8 °F /  -19.9 °C 1010.0in /  34198.6hPa WNW 1.1mph /  1.8km/h 6.4mph /  10.3km/h 78% 0.0in /  0mm WeatherDisplay:10.37 W/m2 FEW
18:25 -0.5 °F /  -18.1 °C -3.5 °F /  -19.7 °C 1009.7in /  34188.4hPa NW 5.0mph /  8km/h 22.2mph /  35.7km/h 80% 0.0in /  0mm WeatherDisplay:10.37 W/m2 FEW
18:31 -0.7 °F /  -18.2 °C -3.3 °F /  -19.6 °C 1009.7in /  34188.4hPa WSW 2.9mph /  4.7km/h 9.3mph /  15km/h 82% 0.0in /  0mm WeatherDisplay:10.37 W/m2 FEW
18:36 -0.8 °F /  -18.2 °C -3.2 °F /  -19.6 °C 1009.7in /  34188.4hPa NNE 2.7mph /  4.3km/h 5.6mph /  9km/h 84% 0.0in /  0mm WeatherDisplay:10.37 W/m2 FEW
18:42 -1.0 °F /  -18.3 °C -3.1 °F /  -19.5 °C 1010.0in /  34198.6hPa WNW 4.0mph /  6.4km/h 5.6mph /  9km/h 86% 0.0in /  0mm WeatherDisplay:10.37 W/m2 FEW
18:46 -1.1 °F /  -18.4 °C -2.9 °F /  -19.4 °C 1009.7in /  34188.4hPa NNW 6.6mph /  10.6km/h 16.7mph /  26.9km/h 87% 0.0in /  0mm WeatherDisplay:10.37 W/m2 FEW
18:52 -1.2 °F /  -18.4 °C -2.9 °F /  -19.4 °C 1009.7in /  34188.4hPa NE 4.3mph /  6.9km/h 9.7mph /  15.6km/h 88% 0.0in /  0mm WeatherDisplay:10.37 W/m2 FEW
18:57 -1.3 °F /  -18.5 °C -2.9 °F /  -19.4 °C 1009.7in /  34188.4hPa NNW 2.7mph /  4.3km/h 5.6mph /  9km/h 89% 0.0in /  0mm WeatherDisplay:10.37 W/m2 FEW
19:02 -1.4 °F /  -18.6 °C -2.8 °F /  -19.3 °C 1009.7in /  34188.4hPa West 0.2mph /  0.3km/h 6.4mph /  10.3km/h 90% 0.0in /  0mm WeatherDisplay:10.37 W/m2 FEW
19:07 -1.4 °F /  -18.6 °C -2.9 °F /  -19.4 °C 1009.4in /  34178.3hPa West 4.5mph /  7.2km/h 7.4mph /  11.9km/h 90% 0.0in /  0mm WeatherDisplay:10.37 W/m2 FEW
19:12 -1.5 °F /  -18.6 °C -2.8 °F /  -19.3 °C 1009.4in /  34178.3hPa NW 4.0mph /  6.4km/h 11.1mph /  17.9km/h 91% 0.0in /  0mm WeatherDisplay:10.37 W/m2 FEW
19:17 -1.6 °F /  -18.7 °C -3.0 °F /  -19.4 °C 1009.4in /  34178.3hPa WSW 1.6mph /  2.6km/h 5.6mph /  9km/h 90% 0.0in /  0mm WeatherDisplay:10.37 W/m2 FEW
19:22 -1.6 °F /  -18.7 °C -3.0 °F /  -19.4 °C 1009.4in /  34178.3hPa West 3.5mph /  5.6km/h 16.7mph /  26.9km/h 90% 0.0in /  0mm WeatherDisplay:10.37 W/m2 FEW
19:27 -1.6 °F /  -18.7 °C -3.0 °F /  -19.4 °C 1009.4in /  34178.3hPa NW 3.1mph /  5km/h 12.9mph /  20.8km/h 90% 0.0in /  0mm WeatherDisplay:10.37 W/m2 FEW
19:32 -1.6 °F /  -18.7 °C -2.8 °F /  -19.3 °C 1009.4in /  34178.3hPa NNE 1.3mph /  2.1km/h 7.4mph /  11.9km/h 91% 0.0in /  0mm WeatherDisplay:10.37 W/m2 FEW
19:37 -1.5 °F /  -18.6 °C -2.9 °F /  -19.4 °C 1009.4in /  34178.3hPa NNW 2.4mph /  3.9km/h 9.3mph /  15km/h 90% 0.0in /  0mm WeatherDisplay:10.37 W/m2 FEW
19:42 -1.5 °F /  -18.6 °C -2.9 °F /  -19.4 °C 1009.4in /  34178.3hPa WSW 4.7mph /  7.6km/h 11.1mph /  17.9km/h 90% 0.0in /  0mm WeatherDisplay:10.37 W/m2 FEW
19:48 -1.4 °F /  -18.6 °C -3.0 °F /  -19.4 °C 1009.4in /  34178.3hPa WSW 5.1mph /  8.2km/h 11.1mph /  17.9km/h 89% 0.0in /  0mm WeatherDisplay:10.37 W/m2 FEW
19:53 -1.4 °F /  -18.6 °C -2.9 °F /  -19.4 °C 1009.0in /  34164.7hPa West 0.8mph /  1.3km/h 11.1mph /  17.9km/h 89% 0.0in /  0mm WeatherDisplay:10.37 W/m2 FEW
19:59 -1.4 °F /  -18.6 °C -2.9 °F /  -19.4 °C 1009.0in /  34164.7hPa NW 3.5mph /  5.6km/h 11.1mph /  17.9km/h 89% 0.0in /  0mm WeatherDisplay:10.37 W/m2 FEW
20:04 -1.4 °F /  -18.6 °C -3.1 °F /  -19.5 °C 1009.0in /  34164.7hPa West 9.0mph /  14.5km/h 16.7mph /  26.9km/h 88% 0.0in /  0mm WeatherDisplay:10.37 W/m2 FEW
20:09 -1.3 °F /  -18.5 °C -3.1 °F /  -19.5 °C 1009.0in /  34164.7hPa WNW 3.4mph /  5.5km/h 11.1mph /  17.9km/h 88% 0.0in /  0mm WeatherDisplay:10.37 W/m2 FEW
20:19 -1.3 °F /  -18.5 °C -3.2 °F /  -19.6 °C 1009.0in /  34164.7hPa Calm   1.9mph /  3.1km/h 87% 0.0in /  0mm WeatherDisplay:10.37 W/m2 FEW
20:24 -1.3 °F /  -18.5 °C -3.2 °F /  -19.6 °C 1009.0in /  34164.7hPa SW 5.3mph /  8.5km/h 9.3mph /  15km/h 87% 0.0in /  0mm WeatherDisplay:10.37 W/m2 FEW
20:29 -1.2 °F /  -18.4 °C -3.3 °F /  -19.6 °C 1009.0in /  34164.7hPa West 3.9mph /  6.3km/h 7.4mph /  11.9km/h 86% 0.0in /  0mm WeatherDisplay:10.37 W/m2 FEW
20:34 -1.2 °F /  -18.4 °C -3.3 °F /  -19.6 °C 1009.0in /  34164.7hPa NNW 4.2mph /  6.8km/h 7.4mph /  11.9km/h 86% 0.0in /  0mm WeatherDisplay:10.37 W/m2 FEW
20:39 -1.2 °F /  -18.4 °C -3.4 °F /  -19.7 °C 1008.7in /  34154.6hPa Calm     85% 0.0in /  0mm WeatherDisplay:10.37 W/m2 FEW
20:44 -1.2 °F /  -18.4 °C -3.4 °F /  -19.7 °C 1008.7in /  34154.6hPa West 1.3mph /  2.1km/h 4.8mph /  7.7km/h 85% 0.0in /  0mm WeatherDisplay:10.37 W/m2 FEW
20:49 -1.2 °F /  -18.4 °C -3.5 °F /  -19.7 °C 1009.0in /  34164.7hPa West 1.4mph /  2.3km/h   84% 0.0in /  0mm WeatherDisplay:10.37 W/m2 FEW
20:54 -1.2 °F /  -18.4 °C -3.5 °F /  -19.7 °C 1009.0in /  34164.7hPa ESE 0.8mph /  1.3km/h   84% 0.0in /  0mm WeatherDisplay:10.37 W/m2 FEW
21:00 -1.1 °F /  -18.4 °C -3.4 °F /  -19.7 °C 1009.0in /  34164.7hPa West 1.0mph /  1.6km/h 13.0mph /  20.9km/h 84% 0.0in /  0mm WeatherDisplay:10.37 W/m2 FEW
21:05 -1.1 °F /  -18.4 °C -3.4 °F /  -19.7 °C 1009.0in /  34164.7hPa WSW 2.6mph /  4.2km/h 5.6mph /  9km/h 84% 0.0in /  0mm WeatherDisplay:10.37 W/m2 FEW
21:10 -1.1 °F /  -18.4 °C -3.6 °F /  -19.8 °C 1009.0in /  34164.7hPa NW 1.3mph /  2.1km/h 5.6mph /  9km/h 83% 0.0in /  0mm WeatherDisplay:10.37 W/m2 FEW
21:15 -1.1 °F /  -18.4 °C -3.6 °F /  -19.8 °C 1009.0in /  34164.7hPa WNW 3.1mph /  5km/h 13.0mph /  20.9km/h 83% 0.0in /  0mm WeatherDisplay:10.37 W/m2 FEW
21:17 -1.1 °F /  -18.4 °C -3.6 °F /  -19.8 °C 1009.0in /  34164.7hPa North 4.7mph /  7.6km/h 18.5mph /  29.8km/h 83% 0.0in /  0mm WeatherDisplay:10.37 W/m2 FEW
21:24 -1.0 °F /  -18.3 °C -3.5 °F /  -19.7 °C 1009.0in /  34164.7hPa West 1.0mph /  1.6km/h 5.6mph /  9km/h 83% 0.0in /  0mm WeatherDisplay:10.37 W/m2 FEW
21:29 -0.9 °F /  -18.3 °C -3.4 °F /  -19.7 °C 1009.0in /  34164.7hPa West 4.2mph /  6.8km/h 9.3mph /  15km/h 83% 0.0in /  0mm WeatherDisplay:10.37 W/m2 FEW
21:35 -0.9 °F /  -18.3 °C -3.4 °F /  -19.7 °C 1009.0in /  34164.7hPa WNW 1.9mph /  3.1km/h 9.3mph /  15km/h 83% 0.0in /  0mm WeatherDisplay:10.37 W/m2 FEW
21:40 -0.9 °F /  -18.3 °C -3.4 °F /  -19.7 °C 1009.0in /  34164.7hPa WSW 2.3mph /  3.7km/h 3.7mph /  6km/h 83% 0.0in /  0mm WeatherDisplay:10.37 W/m2 FEW
21:46 -0.9 °F /  -18.3 °C -3.4 °F /  -19.7 °C 1009.0in /  34164.7hPa WNW 2.7mph /  4.3km/h 11.1mph /  17.9km/h 83% 0.0in /  0mm WeatherDisplay:10.37 W/m2 FEW
21:51 -0.8 °F /  -18.2 °C -3.5 °F /  -19.7 °C 1009.0in /  34164.7hPa WNW 8.4mph /  13.5km/h 20.4mph /  32.8km/h 82% 0.0in /  0mm WeatherDisplay:10.37 W/m2 FEW
21:56 -0.7 °F /  -18.2 °C -3.4 °F /  -19.7 °C 1009.0in /  34164.7hPa WNW 0.8mph /  1.3km/h 18.5mph /  29.8km/h 82% 0.0in /  0mm WeatherDisplay:10.37 W/m2 FEW
22:02 -0.8 °F /  -18.2 °C -3.4 °F /  -19.7 °C 1009.0in /  34164.7hPa West 0.2mph /  0.3km/h 5.6mph /  9km/h 82% 0.0in /  0mm WeatherDisplay:10.37 W/m2 FEW
22:07 -0.7 °F /  -18.2 °C -3.4 °F /  -19.7 °C 1009.0in /  34164.7hPa WNW 0.6mph /  1km/h 5.6mph /  9km/h 82% 0.0in /  0mm WeatherDisplay:10.37 W/m2 FEW
22:08 -0.8 °F /  -18.2 °C -3.4 °F /  -19.7 °C 1009.0in /  34164.7hPa NW 1.4mph /  2.3km/h 5.6mph /  9km/h 82% 0.0in /  0mm WeatherDisplay:10.37 W/m2 FEW
22:16 -0.8 °F /  -18.2 °C -3.4 °F /  -19.7 °C 1009.0in /  34164.7hPa WNW 1.1mph /  1.8km/h 1.6mph /  2.6km/h 82% 0.0in /  0mm WeatherDisplay:10.37 W/m2 FEW
22:22 -0.8 °F /  -18.2 °C -3.3 °F /  -19.6 °C 1009.0in /  34164.7hPa WSW 2.7mph /  4.3km/h 13.0mph /  20.9km/h 83% 0.0in /  0mm WeatherDisplay:10.37 W/m2 FEW
22:27 -0.8 °F /  -18.2 °C -3.3 °F /  -19.6 °C 1009.0in /  34164.7hPa West 4.8mph /  7.7km/h 5.6mph /  9km/h 83% 0.0in /  0mm WeatherDisplay:10.37 W/m2 FEW
22:32 -0.8 °F /  -18.2 °C -3.3 °F /  -19.6 °C 1009.0in /  34164.7hPa WSW 3.4mph /  5.5km/h 8.0mph /  12.9km/h 83% 0.0in /  0mm WeatherDisplay:10.37 W/m2 FEW
22:37 -0.8 °F /  -18.2 °C -3.3 °F /  -19.6 °C 1009.0in /  34164.7hPa SW 8.7mph /  14km/h 8.7mph /  14km/h 83% 0.0in /  0mm WeatherDisplay:10.37 W/m2 FEW
22:42 -0.7 °F /  -18.2 °C -3.3 °F /  -19.6 °C 1009.0in /  34164.7hPa WSW 7.6mph /  12.2km/h 18.5mph /  29.8km/h 83% 0.0in /  0mm WeatherDisplay:10.37 W/m2 FEW
22:48 -0.7 °F /  -18.2 °C -3.3 °F /  -19.6 °C 1009.0in /  34164.7hPa North 5.8mph /  9.3km/h 11.3mph /  18.2km/h 83% 0.0in /  0mm WeatherDisplay:10.37 W/m2 FEW
22:54 -0.7 °F /  -18.2 °C -3.2 °F /  -19.6 °C 1009.4in /  34178.3hPa NW 2.3mph /  3.7km/h 5.6mph /  9km/h 83% 0.0in /  0mm WeatherDisplay:10.37 W/m2 FEW
22:58 -0.7 °F /  -18.2 °C -3.3 °F /  -19.6 °C 1009.0in /  34164.7hPa SW 4.2mph /  6.8km/h 6.4mph /  10.3km/h 82% 0.0in /  0mm WeatherDisplay:10.37 W/m2 FEW
23:03 -0.6 °F /  -18.1 °C -3.3 °F /  -19.6 °C 1009.0in /  34164.7hPa West 4.5mph /  7.2km/h 13.0mph /  20.9km/h 82% 0.0in /  0mm WeatherDisplay:10.37 W/m2 FEW
23:08 -0.6 °F /  -18.1 °C -3.3 °F /  -19.6 °C 1009.0in /  34164.7hPa West 6.4mph /  10.3km/h 7.4mph /  11.9km/h 82% 0.0in /  0mm WeatherDisplay:10.37 W/m2 FEW
23:14 -0.6 °F /  -18.1 °C -3.3 °F /  -19.6 °C 1009.0in /  34164.7hPa WNW 4.3mph /  6.9km/h 7.4mph /  11.9km/h 82% 0.0in /  0mm WeatherDisplay:10.37 W/m2 FEW
23:19 -0.6 °F /  -18.1 °C -3.3 °F /  -19.6 °C 1009.0in /  34164.7hPa West 1.0mph /  1.6km/h 3.7mph /  6km/h 82% 0.0in /  0mm WeatherDisplay:10.37 W/m2 FEW
23:24 -0.6 °F /  -18.1 °C -3.4 °F /  -19.7 °C 1009.0in /  34164.7hPa North 3.1mph /  5km/h 5.6mph /  9km/h 81% 0.0in /  0mm WeatherDisplay:10.37 W/m2 FEW
23:29 -0.6 °F /  -18.1 °C -3.3 °F /  -19.6 °C 1009.0in /  34164.7hPa WSW 3.7mph /  6km/h 4.8mph /  7.7km/h 82% 0.0in /  0mm WeatherDisplay:10.37 W/m2 FEW
23:34 -0.6 °F /  -18.1 °C -3.4 °F /  -19.7 °C 1009.0in /  34164.7hPa SW 1.4mph /  2.3km/h 6.4mph /  10.3km/h 81% 0.0in /  0mm WeatherDisplay:10.37 W/m2 FEW
23:39 -0.5 °F /  -18.1 °C -3.3 °F /  -19.6 °C 1009.0in /  34164.7hPa SW 5.6mph /  9km/h 11.1mph /  17.9km/h 81% 0.0in /  0mm WeatherDisplay:10.37 W/m2 FEW
23:44 -0.4 °F /  -18 °C -3.5 °F /  -19.7 °C 1009.0in /  34164.7hPa WNW 2.3mph /  3.7km/h 7.4mph /  11.9km/h 80% 0.0in /  0mm WeatherDisplay:10.37 W/m2 FEW
23:49 -0.3 °F /  -17.9 °C -3.4 °F /  -19.7 °C 1009.0in /  34164.7hPa NNW 3.7mph /  6km/h 7.4mph /  11.9km/h 80% 0.0in /  0mm WeatherDisplay:10.37 W/m2 FEW
23:54 -0.3 °F /  -17.9 °C -3.5 °F /  -19.7 °C 1008.7in /  34154.6hPa WSW 2.6mph /  4.2km/h 18.5mph /  29.8km/h 79% 0.0in /  0mm WeatherDisplay:10.37 W/m2 FEW
Tuulensuunkaari, Veikkola, Suomi
Compliments of Weather Underground - 2.5 mb